sensor_id;sensor_type;location;lat;lon;timestamp;temperature;humidity
42147;DHT22;27815;43.410;11.852;2022-07-29T00:01:39;22.30;73.00
42147;DHT22;27815;43.410;11.852;2022-07-29T00:05:56;22.20;73.00
42147;DHT22;27815;43.410;11.852;2022-07-29T00:10:13;22.10;73.20
42147;DHT22;27815;43.410;11.852;2022-07-29T00:14:33;22.10;73.30
42147;DHT22;27815;43.410;11.852;2022-07-29T00:19:03;22.00;73.50
42147;DHT22;27815;43.410;11.852;2022-07-29T00:23:38;22.00;73.60
42147;DHT22;27815;43.410;11.852;2022-07-29T00:27:56;22.00;73.60
42147;DHT22;27815;43.410;11.852;2022-07-29T00:32:01;22.00;73.40
42147;DHT22;27815;43.410;11.852;2022-07-29T00:36:22;22.10;73.30
42147;DHT22;27815;43.410;11.852;2022-07-29T00:40:40;22.10;73.10
42147;DHT22;27815;43.410;11.852;2022-07-29T00:44:46;22.10;73.10
42147;DHT22;27815;43.410;11.852;2022-07-29T00:49:03;22.10;73.20
42147;DHT22;27815;43.410;11.852;2022-07-29T00:53:10;22.10;73.30
42147;DHT22;27815;43.410;11.852;2022-07-29T00:57:21;22.10;73.40
42147;DHT22;27815;43.410;11.852;2022-07-29T01:01:38;22.10;73.30
42147;DHT22;27815;43.410;11.852;2022-07-29T01:05:55;22.10;73.50
42147;DHT22;27815;43.410;11.852;2022-07-29T01:10:15;22.00;73.80
42147;DHT22;27815;43.410;11.852;2022-07-29T01:14:21;22.00;73.80
42147;DHT22;27815;43.410;11.852;2022-07-29T01:18:37;22.00;73.70
42147;DHT22;27815;43.410;11.852;2022-07-29T01:36:10;22.00;73.80
42147;DHT22;27815;43.410;11.852;2022-07-29T01:40:22;22.00;73.90
42147;DHT22;27815;43.410;11.852;2022-07-29T01:44:57;22.00;74.00
42147;DHT22;27815;43.410;11.852;2022-07-29T01:49:17;22.00;74.00
42147;DHT22;27815;43.410;11.852;2022-07-29T01:53:42;22.00;74.00
42147;DHT22;27815;43.410;11.852;2022-07-29T01:58:03;22.00;73.80
42147;DHT22;27815;43.410;11.852;2022-07-29T02:02:23;22.00;73.90
42147;DHT22;27815;43.410;11.852;2022-07-29T02:06:44;21.90;73.90
42147;DHT22;27815;43.410;11.852;2022-07-29T02:11:03;21.90;73.90
42147;DHT22;27815;43.410;11.852;2022-07-29T02:15:26;21.80;74.00
42147;DHT22;27815;43.410;11.852;2022-07-29T02:19:45;21.80;74.10
42147;DHT22;27815;43.410;11.852;2022-07-29T02:23:59;21.80;74.10
42147;DHT22;27815;43.410;11.852;2022-07-29T02:28:17;21.70;74.20
42147;DHT22;27815;43.410;11.852;2022-07-29T02:32:37;21.70;74.30
42147;DHT22;27815;43.410;11.852;2022-07-29T02:36:58;21.70;74.30
42147;DHT22;27815;43.410;11.852;2022-07-29T02:41:23;21.80;74.20
42147;DHT22;27815;43.410;11.852;2022-07-29T02:45:44;21.70;74.30
42147;DHT22;27815;43.410;11.852;2022-07-29T02:50:11;21.60;74.20
42147;DHT22;27815;43.410;11.852;2022-07-29T02:54:56;21.60;74.50
42147;DHT22;27815;43.410;11.852;2022-07-29T02:59:09;21.60;74.40
42147;DHT22;27815;43.410;11.852;2022-07-29T03:03:30;21.50;74.70
42147;DHT22;27815;43.410;11.852;2022-07-29T03:07:49;21.50;74.60
42147;DHT22;27815;43.410;11.852;2022-07-29T03:12:08;21.50;74.70
42147;DHT22;27815;43.410;11.852;2022-07-29T03:16:25;21.50;74.60
42147;DHT22;27815;43.410;11.852;2022-07-29T03:20:43;21.50;74.50
42147;DHT22;27815;43.410;11.852;2022-07-29T03:25:08;21.50;74.60
42147;DHT22;27815;43.410;11.852;2022-07-29T03:29:12;21.50;74.80
42147;DHT22;27815;43.410;11.852;2022-07-29T03:33:32;21.40;74.50
42147;DHT22;27815;43.410;11.852;2022-07-29T03:37:49;21.30;74.70
42147;DHT22;27815;43.410;11.852;2022-07-29T03:42:31;21.30;74.90
42147;DHT22;27815;43.410;11.852;2022-07-29T03:46:50;21.30;74.90
42147;DHT22;27815;43.410;11.852;2022-07-29T03:51:08;21.30;74.90
42147;DHT22;27815;43.410;11.852;2022-07-29T03:55:38;21.30;74.90
42147;DHT22;27815;43.410;11.852;2022-07-29T03:59:57;21.30;75.10
42147;DHT22;27815;43.410;11.852;2022-07-29T04:04:15;21.20;75.10
42147;DHT22;27815;43.410;11.852;2022-07-29T04:08:34;21.20;75.10
42147;DHT22;27815;43.410;11.852;2022-07-29T04:12:52;21.20;75.20
42147;DHT22;27815;43.410;11.852;2022-07-29T04:17:09;21.20;75.20
42147;DHT22;27815;43.410;11.852;2022-07-29T04:21:26;21.30;75.40
42147;DHT22;27815;43.410;11.852;2022-07-29T04:25:43;21.30;75.30
42147;DHT22;27815;43.410;11.852;2022-07-29T04:30:02;21.30;75.40
42147;DHT22;27815;43.410;11.852;2022-07-29T04:34:19;21.30;75.40
42147;DHT22;27815;43.410;11.852;2022-07-29T04:38:37;21.40;75.40
42147;DHT22;27815;43.410;11.852;2022-07-29T04:42:54;21.40;75.30
42147;DHT22;27815;43.410;11.852;2022-07-29T04:47:11;21.40;75.40
42147;DHT22;27815;43.410;11.852;2022-07-29T04:51:30;21.40;75.50
42147;DHT22;27815;43.410;11.852;2022-07-29T04:55:53;21.30;75.60
42147;DHT22;27815;43.410;11.852;2022-07-29T05:00:25;21.40;75.80
42147;DHT22;27815;43.410;11.852;2022-07-29T05:04:42;21.50;75.60
42147;DHT22;27815;43.410;11.852;2022-07-29T05:08:45;21.50;75.70
42147;DHT22;27815;43.410;11.852;2022-07-29T05:12:48;21.50;75.90
42147;DHT22;27815;43.410;11.852;2022-07-29T05:16:51;21.40;76.00
42147;DHT22;27815;43.410;11.852;2022-07-29T05:20:55;21.50;76.00
42147;DHT22;27815;43.410;11.852;2022-07-29T05:24:59;21.60;75.80
42147;DHT22;27815;43.410;11.852;2022-07-29T05:29:08;21.80;75.70
42147;DHT22;27815;43.410;11.852;2022-07-29T05:33:31;21.90;75.60
42147;DHT22;27815;43.410;11.852;2022-07-29T05:37:39;22.00;75.60
42147;DHT22;27815;43.410;11.852;2022-07-29T05:41:43;22.10;75.50
42147;DHT22;27815;43.410;11.852;2022-07-29T05:45:53;22.30;75.70
42147;DHT22;27815;43.410;11.852;2022-07-29T05:49:56;22.40;75.60
42147;DHT22;27815;43.410;11.852;2022-07-29T05:53:59;22.50;75.60
42147;DHT22;27815;43.410;11.852;2022-07-29T05:58:02;22.50;75.50
42147;DHT22;27815;43.410;11.852;2022-07-29T06:02:05;22.60;75.40
42147;DHT22;27815;43.410;11.852;2022-07-29T06:06:09;22.70;75.30
42147;DHT22;27815;43.410;11.852;2022-07-29T06:10:12;22.90;75.20
42147;DHT22;27815;43.410;11.852;2022-07-29T06:14:14;23.00;75.10
42147;DHT22;27815;43.410;11.852;2022-07-29T06:18:18;23.20;74.80
42147;DHT22;27815;43.410;11.852;2022-07-29T06:22:23;23.50;74.40
42147;DHT22;27815;43.410;11.852;2022-07-29T06:26:26;23.60;74.00
42147;DHT22;27815;43.410;11.852;2022-07-29T06:30:34;23.90;73.60
42147;DHT22;27815;43.410;11.852;2022-07-29T06:34:37;24.10;73.30
42147;DHT22;27815;43.410;11.852;2022-07-29T06:38:44;24.50;72.60
42147;DHT22;27815;43.410;11.852;2022-07-29T06:42:53;24.60;72.20
42147;DHT22;27815;43.410;11.852;2022-07-29T06:46:56;24.70;71.90
42147;DHT22;27815;43.410;11.852;2022-07-29T06:51:00;25.00;71.50
42147;DHT22;27815;43.410;11.852;2022-07-29T06:55:05;25.30;71.20
42147;DHT22;27815;43.410;11.852;2022-07-29T06:59:11;25.50;70.60
42147;DHT22;27815;43.410;11.852;2022-07-29T07:03:15;25.70;70.10
42147;DHT22;27815;43.410;11.852;2022-07-29T07:07:18;25.80;70.00
42147;DHT22;27815;43.410;11.852;2022-07-29T07:11:24;25.90;69.80
42147;DHT22;27815;43.410;11.852;2022-07-29T07:15:27;26.00;69.40
42147;DHT22;27815;43.410;11.852;2022-07-29T07:19:41;26.30;69.10
42147;DHT22;27815;43.410;11.852;2022-07-29T07:23:55;26.60;67.80
42147;DHT22;27815;43.410;11.852;2022-07-29T07:27:58;26.80;67.10
42147;DHT22;27815;43.410;11.852;2022-07-29T07:32:15;27.00;66.60
42147;DHT22;27815;43.410;11.852;2022-07-29T07:36:35;27.10;66.30
42147;DHT22;27815;43.410;11.852;2022-07-29T07:40:39;27.20;65.70
42147;DHT22;27815;43.410;11.852;2022-07-29T07:44:44;27.30;64.80
42147;DHT22;27815;43.410;11.852;2022-07-29T07:49:10;27.40;64.70
42147;DHT22;27815;43.410;11.852;2022-07-29T07:53:13;27.50;64.00
42147;DHT22;27815;43.410;11.852;2022-07-29T07:57:24;27.70;63.40
42147;DHT22;27815;43.410;11.852;2022-07-29T08:01:43;27.90;62.90
42147;DHT22;27815;43.410;11.852;2022-07-29T08:06:00;28.10;62.30
42147;DHT22;27815;43.410;11.852;2022-07-29T08:10:39;28.20;62.00
42147;DHT22;27815;43.410;11.852;2022-07-29T08:15:33;28.50;61.70
42147;DHT22;27815;43.410;11.852;2022-07-29T08:20:05;28.80;60.40
42147;DHT22;27815;43.410;11.852;2022-07-29T08:24:37;29.00;60.10
42147;DHT22;27815;43.410;11.852;2022-07-29T08:29:40;29.20;59.10
42147;DHT22;27815;43.410;11.852;2022-07-29T08:34:22;29.30;58.90
42147;DHT22;27815;43.410;11.852;2022-07-29T08:39:00;29.40;58.50
42147;DHT22;27815;43.410;11.852;2022-07-29T08:43:42;29.60;58.00
42147;DHT22;27815;43.410;11.852;2022-07-29T08:48:01;29.80;57.50
42147;DHT22;27815;43.410;11.852;2022-07-29T08:52:40;29.90;56.10
42147;DHT22;27815;43.410;11.852;2022-07-29T08:57:01;30.00;56.30
42147;DHT22;27815;43.410;11.852;2022-07-29T09:01:37;30.20;55.50
42147;DHT22;27815;43.410;11.852;2022-07-29T09:05:56;30.40;55.20
42147;DHT22;27815;43.410;11.852;2022-07-29T09:10:37;30.50;54.00
42147;DHT22;27815;43.410;11.852;2022-07-29T09:15:05;30.80;53.50
42147;DHT22;27815;43.410;11.852;2022-07-29T09:19:31;31.00;52.10
42147;DHT22;27815;43.410;11.852;2022-07-29T09:24:11;31.30;51.60
42147;DHT22;27815;43.410;11.852;2022-07-29T09:28:32;31.50;50.70
42147;DHT22;27815;43.410;11.852;2022-07-29T09:32:58;31.50;50.10
42147;DHT22;27815;43.410;11.852;2022-07-29T09:37:38;31.70;50.00
42147;DHT22;27815;43.410;11.852;2022-07-29T09:42:35;31.90;49.20
42147;DHT22;27815;43.410;11.852;2022-07-29T09:47:44;32.20;47.80
42147;DHT22;27815;43.410;11.852;2022-07-29T09:52:28;32.30;47.60
42147;DHT22;27815;43.410;11.852;2022-07-29T09:56:46;32.40;46.30
42147;DHT22;27815;43.410;11.852;2022-07-29T10:01:26;32.40;45.90
42147;DHT22;27815;43.410;11.852;2022-07-29T10:05:33;32.40;45.70
42147;DHT22;27815;43.410;11.852;2022-07-29T10:09:55;32.50;45.70
42147;DHT22;27815;43.410;11.852;2022-07-29T10:14:35;32.70;45.60
42147;DHT22;27815;43.410;11.852;2022-07-29T10:19:13;32.90;44.20
42147;DHT22;27815;43.410;11.852;2022-07-29T10:23:53;33.10;42.40
42147;DHT22;27815;43.410;11.852;2022-07-29T10:28:05;33.20;42.90
42147;DHT22;27815;43.410;11.852;2022-07-29T10:32:35;33.30;41.90
42147;DHT22;27815;43.410;11.852;2022-07-29T10:42:11;33.50;41.00
42147;DHT22;27815;43.410;11.852;2022-07-29T10:46:41;33.50;40.00
42147;DHT22;27815;43.410;11.852;2022-07-29T10:51:03;33.60;39.40
42147;DHT22;27815;43.410;11.852;2022-07-29T10:55:38;33.70;39.50
42147;DHT22;27815;43.410;11.852;2022-07-29T11:09:19;34.00;39.20
42147;DHT22;27815;43.410;11.852;2022-07-29T11:18:04;34.30;38.00
42147;DHT22;27815;43.410;11.852;2022-07-29T11:22:34;34.10;37.90
42147;DHT22;27815;43.410;11.852;2022-07-29T11:27:15;34.30;37.90
42147;DHT22;27815;43.410;11.852;2022-07-29T11:31:37;34.40;37.30
42147;DHT22;27815;43.410;11.852;2022-07-29T11:36:14;34.60;36.50
42147;DHT22;27815;43.410;11.852;2022-07-29T11:40:32;34.60;35.90
42147;DHT22;27815;43.410;11.852;2022-07-29T11:45:09;34.70;36.00
42147;DHT22;27815;43.410;11.852;2022-07-29T11:49:36;34.90;35.50
42147;DHT22;27815;43.410;11.852;2022-07-29T11:54:00;35.00;35.40
42147;DHT22;27815;43.410;11.852;2022-07-29T11:58:41;35.10;34.80
42147;DHT22;27815;43.410;11.852;2022-07-29T12:03:37;35.20;35.10
42147;DHT22;27815;43.410;11.852;2022-07-29T12:08:54;35.30;34.40
42147;DHT22;27815;43.410;11.852;2022-07-29T12:13:16;35.30;34.40
42147;DHT22;27815;43.410;11.852;2022-07-29T12:18:31;35.40;33.90
42147;DHT22;27815;43.410;11.852;2022-07-29T12:23:53;35.40;34.20
42147;DHT22;27815;43.410;11.852;2022-07-29T12:33:30;35.50;33.90
42147;DHT22;27815;43.410;11.852;2022-07-29T12:38:36;35.70;33.70
42147;DHT22;27815;43.410;11.852;2022-07-29T12:43:18;35.80;33.30
42147;DHT22;27815;43.410;11.852;2022-07-29T12:47:51;35.80;32.60
42147;DHT22;27815;43.410;11.852;2022-07-29T12:52:29;36.00;32.40
42147;DHT22;27815;43.410;11.852;2022-07-29T12:57:11;36.00;32.30
42147;DHT22;27815;43.410;11.852;2022-07-29T13:07:05;36.20;30.70
42147;DHT22;27815;43.410;11.852;2022-07-29T13:12:07;36.30;30.50
42147;DHT22;27815;43.410;11.852;2022-07-29T13:16:37;36.30;29.90
42147;DHT22;27815;43.410;11.852;2022-07-29T13:21:15;36.40;30.30
42147;DHT22;27815;43.410;11.852;2022-07-29T13:25:32;36.50;29.80
42147;DHT22;27815;43.410;11.852;2022-07-29T13:29:56;36.60;28.80
42147;DHT22;27815;43.410;11.852;2022-07-29T13:34:29;36.50;29.00
42147;DHT22;27815;43.410;11.852;2022-07-29T13:38:46;36.50;29.50
42147;DHT22;27815;43.410;11.852;2022-07-29T13:43:11;36.60;28.90
42147;DHT22;27815;43.410;11.852;2022-07-29T13:47:31;36.60;28.60
42147;DHT22;27815;43.410;11.852;2022-07-29T13:52:12;36.70;28.60
42147;DHT22;27815;43.410;11.852;2022-07-29T13:56:46;36.80;28.50
42147;DHT22;27815;43.410;11.852;2022-07-29T14:01:18;36.50;28.50
42147;DHT22;27815;43.410;11.852;2022-07-29T14:05:40;36.40;29.30
42147;DHT22;27815;43.410;11.852;2022-07-29T14:09:43;36.50;29.10
42147;DHT22;27815;43.410;11.852;2022-07-29T14:14:01;36.30;29.30
42147;DHT22;27815;43.410;11.852;2022-07-29T14:18:25;36.20;29.50
42147;DHT22;27815;43.410;11.852;2022-07-29T14:22:50;36.00;30.10
42147;DHT22;27815;43.410;11.852;2022-07-29T14:27:12;35.70;30.70
42147;DHT22;27815;43.410;11.852;2022-07-29T14:31:30;35.50;32.00
42147;DHT22;27815;43.410;11.852;2022-07-29T14:36:11;35.20;32.70
42147;DHT22;27815;43.410;11.852;2022-07-29T14:41:09;34.90;33.10
42147;DHT22;27815;43.410;11.852;2022-07-29T14:45:38;34.70;33.70
42147;DHT22;27815;43.410;11.852;2022-07-29T14:49:59;34.40;33.80
42147;DHT22;27815;43.410;11.852;2022-07-29T14:54:17;34.20;34.40
42147;DHT22;27815;43.410;11.852;2022-07-29T14:58:34;34.00;35.30
42147;DHT22;27815;43.410;11.852;2022-07-29T15:02:53;33.60;37.30
42147;DHT22;27815;43.410;11.852;2022-07-29T15:07:11;32.90;40.80
42147;DHT22;27815;43.410;11.852;2022-07-29T15:11:28;31.80;43.70
42147;DHT22;27815;43.410;11.852;2022-07-29T15:15:49;30.80;44.90
42147;DHT22;27815;43.410;11.852;2022-07-29T15:20:07;30.20;45.60
42147;DHT22;27815;43.410;11.852;2022-07-29T15:24:10;29.80;45.90
42147;DHT22;27815;43.410;11.852;2022-07-29T15:28:28;29.50;45.40
42147;DHT22;27815;43.410;11.852;2022-07-29T15:32:35;29.50;45.00
42147;DHT22;27815;43.410;11.852;2022-07-29T15:36:52;29.50;43.80
42147;DHT22;27815;43.410;11.852;2022-07-29T15:41:09;29.80;43.40
42147;DHT22;27815;43.410;11.852;2022-07-29T15:45:26;30.00;43.30
42147;DHT22;27815;43.410;11.852;2022-07-29T15:49:43;30.00;43.00
42147;DHT22;27815;43.410;11.852;2022-07-29T15:54:02;30.10;42.50
42147;DHT22;27815;43.410;11.852;2022-07-29T15:58:19;30.20;41.00
42147;DHT22;27815;43.410;11.852;2022-07-29T16:02:36;30.40;41.60
42147;DHT22;27815;43.410;11.852;2022-07-29T16:06:53;30.50;41.80
42147;DHT22;27815;43.410;11.852;2022-07-29T16:11:10;30.60;42.00
42147;DHT22;27815;43.410;11.852;2022-07-29T16:15:27;30.50;43.30
42147;DHT22;27815;43.410;11.852;2022-07-29T16:19:45;30.40;43.90
42147;DHT22;27815;43.410;11.852;2022-07-29T16:23:50;30.40;43.90
42147;DHT22;27815;43.410;11.852;2022-07-29T16:27:53;30.60;43.50
42147;DHT22;27815;43.410;11.852;2022-07-29T16:32:01;31.00;42.70
42147;DHT22;27815;43.410;11.852;2022-07-29T16:36:04;32.00;41.50
42147;DHT22;27815;43.410;11.852;2022-07-29T16:40:14;33.40;39.80
42147;DHT22;27815;43.410;11.852;2022-07-29T16:44:19;34.90;37.50
42147;DHT22;27815;43.410;11.852;2022-07-29T16:48:38;36.00;35.70
42147;DHT22;27815;43.410;11.852;2022-07-29T16:52:55;35.70;35.50
42147;DHT22;27815;43.410;11.852;2022-07-29T16:57:12;35.10;36.30
42147;DHT22;27815;43.410;11.852;2022-07-29T17:01:30;35.60;35.20
42147;DHT22;27815;43.410;11.852;2022-07-29T17:05:51;35.80;35.00
42147;DHT22;27815;43.410;11.852;2022-07-29T17:10:09;34.90;35.20
42147;DHT22;27815;43.410;11.852;2022-07-29T17:14:28;34.50;36.10
42147;DHT22;27815;43.410;11.852;2022-07-29T17:18:32;33.80;37.00
42147;DHT22;27815;43.410;11.852;2022-07-29T17:22:40;33.20;38.70
42147;DHT22;27815;43.410;11.852;2022-07-29T17:26:45;32.80;39.60
42147;DHT22;27815;43.410;11.852;2022-07-29T17:31:05;32.50;40.10
42147;DHT22;27815;43.410;11.852;2022-07-29T17:35:26;32.40;40.60
42147;DHT22;27815;43.410;11.852;2022-07-29T17:39:48;32.20;40.90
42147;DHT22;27815;43.410;11.852;2022-07-29T17:43:52;31.90;42.10
42147;DHT22;27815;43.410;11.852;2022-07-29T17:47:55;31.50;43.10
42147;DHT22;27815;43.410;11.852;2022-07-29T17:51:59;31.50;43.30
42147;DHT22;27815;43.410;11.852;2022-07-29T17:56:03;31.40;43.80
42147;DHT22;27815;43.410;11.852;2022-07-29T18:00:07;31.40;43.90
42147;DHT22;27815;43.410;11.852;2022-07-29T18:04:12;31.10;44.20
42147;DHT22;27815;43.410;11.852;2022-07-29T18:08:18;31.00;45.30
42147;DHT22;27815;43.410;11.852;2022-07-29T18:12:24;30.80;45.80
42147;DHT22;27815;43.410;11.852;2022-07-29T18:16:55;30.50;46.40
42147;DHT22;27815;43.410;11.852;2022-07-29T18:21:13;30.30;46.80
42147;DHT22;27815;43.410;11.852;2022-07-29T18:25:17;30.20;46.50
42147;DHT22;27815;43.410;11.852;2022-07-29T18:29:34;30.00;46.70
42147;DHT22;27815;43.410;11.852;2022-07-29T18:33:52;29.90;46.30
42147;DHT22;27815;43.410;11.852;2022-07-29T18:38:01;29.80;46.70
42147;DHT22;27815;43.410;11.852;2022-07-29T18:42:08;29.70;46.40
42147;DHT22;27815;43.410;11.852;2022-07-29T18:46:16;29.60;46.80
42147;DHT22;27815;43.410;11.852;2022-07-29T18:50:24;29.50;46.60
42147;DHT22;27815;43.410;11.852;2022-07-29T18:54:43;29.50;46.70
42147;DHT22;27815;43.410;11.852;2022-07-29T18:59:03;29.50;46.70
42147;DHT22;27815;43.410;11.852;2022-07-29T19:04:02;29.30;46.40
42147;DHT22;27815;43.410;11.852;2022-07-29T19:08:27;29.30;46.50
42147;DHT22;27815;43.410;11.852;2022-07-29T19:13:10;29.20;46.10
42147;DHT22;27815;43.410;11.852;2022-07-29T19:17:45;29.20;46.20
42147;DHT22;27815;43.410;11.852;2022-07-29T19:22:24;29.10;45.90
42147;DHT22;27815;43.410;11.852;2022-07-29T19:26:41;29.00;46.20
42147;DHT22;27815;43.410;11.852;2022-07-29T19:31:03;29.00;46.50
42147;DHT22;27815;43.410;11.852;2022-07-29T19:35:20;29.00;46.30
42147;DHT22;27815;43.410;11.852;2022-07-29T19:39:57;28.90;46.60
42147;DHT22;27815;43.410;11.852;2022-07-29T19:44:40;28.80;46.40
42147;DHT22;27815;43.410;11.852;2022-07-29T19:49:39;28.70;46.20
42147;DHT22;27815;43.410;11.852;2022-07-29T19:53:43;28.50;46.50
42147;DHT22;27815;43.410;11.852;2022-07-29T19:58:00;28.40;46.70
42147;DHT22;27815;43.410;11.852;2022-07-29T20:02:10;28.30;46.70
42147;DHT22;27815;43.410;11.852;2022-07-29T20:06:17;28.20;47.00
42147;DHT22;27815;43.410;11.852;2022-07-29T20:10:20;28.10;47.10
42147;DHT22;27815;43.410;11.852;2022-07-29T20:14:37;28.00;47.20
42147;DHT22;27815;43.410;11.852;2022-07-29T20:18:59;27.80;47.20
42147;DHT22;27815;43.410;11.852;2022-07-29T20:23:20;27.60;47.50
42147;DHT22;27815;43.410;11.852;2022-07-29T20:27:58;27.40;47.90
42147;DHT22;27815;43.410;11.852;2022-07-29T20:32:21;27.20;48.30
42147;DHT22;27815;43.410;11.852;2022-07-29T20:36:48;27.00;48.50
42147;DHT22;27815;43.410;11.852;2022-07-29T20:41:08;27.00;48.40
42147;DHT22;27815;43.410;11.852;2022-07-29T20:46:06;26.90;48.70
42147;DHT22;27815;43.410;11.852;2022-07-29T20:50:28;26.90;48.70
42147;DHT22;27815;43.410;11.852;2022-07-29T20:55:07;26.90;49.20
42147;DHT22;27815;43.410;11.852;2022-07-29T20:59:32;27.00;48.50
42147;DHT22;27815;43.410;11.852;2022-07-29T21:03:59;27.00;48.80
42147;DHT22;27815;43.410;11.852;2022-07-29T21:08:39;27.00;47.80
42147;DHT22;27815;43.410;11.852;2022-07-29T21:12:56;27.00;47.40
42147;DHT22;27815;43.410;11.852;2022-07-29T21:17:33;27.10;47.60
42147;DHT22;27815;43.410;11.852;2022-07-29T21:22:19;27.00;47.80
42147;DHT22;27815;43.410;11.852;2022-07-29T21:26:53;27.00;47.80
42147;DHT22;27815;43.410;11.852;2022-07-29T21:31:34;26.90;48.00
42147;DHT22;27815;43.410;11.852;2022-07-29T21:35:54;26.70;48.50
42147;DHT22;27815;43.410;11.852;2022-07-29T21:40:32;26.60;48.50
42147;DHT22;27815;43.410;11.852;2022-07-29T21:45:05;26.70;48.50
42147;DHT22;27815;43.410;11.852;2022-07-29T21:49:23;26.70;48.60
42147;DHT22;27815;43.410;11.852;2022-07-29T21:53:41;26.70;48.30
42147;DHT22;27815;43.410;11.852;2022-07-29T21:57:58;26.60;48.30
42147;DHT22;27815;43.410;11.852;2022-07-29T22:02:17;26.60;47.90
42147;DHT22;27815;43.410;11.852;2022-07-29T22:06:42;26.70;47.60
42147;DHT22;27815;43.410;11.852;2022-07-29T22:10:59;26.70;47.80
42147;DHT22;27815;43.410;11.852;2022-07-29T22:15:18;26.70;47.90
42147;DHT22;27815;43.410;11.852;2022-07-29T22:19:40;26.60;47.60
42147;DHT22;27815;43.410;11.852;2022-07-29T22:23:59;26.70;47.90
42147;DHT22;27815;43.410;11.852;2022-07-29T22:28:19;26.70;47.80
42147;DHT22;27815;43.410;11.852;2022-07-29T22:32:38;26.70;48.10
42147;DHT22;27815;43.410;11.852;2022-07-29T22:36:55;26.70;48.20
42147;DHT22;27815;43.410;11.852;2022-07-29T22:41:14;26.70;48.30
42147;DHT22;27815;43.410;11.852;2022-07-29T22:45:32;26.60;48.40
42147;DHT22;27815;43.410;11.852;2022-07-29T22:49:49;26.50;48.50
42147;DHT22;27815;43.410;11.852;2022-07-29T22:54:05;26.50;48.90
42147;DHT22;27815;43.410;11.852;2022-07-29T22:58:22;26.40;49.40
42147;DHT22;27815;43.410;11.852;2022-07-29T23:02:25;26.40;49.20
42147;DHT22;27815;43.410;11.852;2022-07-29T23:06:36;26.40;49.50
42147;DHT22;27815;43.410;11.852;2022-07-29T23:10:54;26.40;49.90
42147;DHT22;27815;43.410;11.852;2022-07-29T23:15:19;26.40;50.20
42147;DHT22;27815;43.410;11.852;2022-07-29T23:19:56;26.30;50.30
42147;DHT22;27815;43.410;11.852;2022-07-29T23:24:35;26.40;49.90
42147;DHT22;27815;43.410;11.852;2022-07-29T23:29:13;26.40;49.70
42147;DHT22;27815;43.410;11.852;2022-07-29T23:33:30;26.50;50.10
42147;DHT22;27815;43.410;11.852;2022-07-29T23:37:33;26.50;50.70
42147;DHT22;27815;43.410;11.852;2022-07-29T23:41:36;26.50;50.80
42147;DHT22;27815;43.410;11.852;2022-07-29T23:45:40;26.50;50.50
42147;DHT22;27815;43.410;11.852;2022-07-29T23:49:46;26.50;50.30
42147;DHT22;27815;43.410;11.852;2022-07-29T23:53:51;26.50;50.20
42147;DHT22;27815;43.410;11.852;2022-07-29T23:57:55;26.40;50.40
